aviador You're here:

KFFC Decoded Metar

PEACHTREE CITY in GA, USA
Report Time2018-05-21 23:53:00
UTC Time2018-05-22 00:14:11
Flight Rules vfr VFR
Wind120° at 03 kt
W.Decomp.*RWY 13: 3.0 kt HW 0.3 kt LCW
W.Rank120° ranks 10
Current wind is below 120° avg. (5.8)
Visibility9999 m
Phenomena:N/A
Clouds:Few 021 Hf
Broken 100 Hf
Expected CloudBase > 800 ft AGL from Temp-Dew spread
Ceiling10,000 ft
Temp22°C (ISA +9)
Dew Point20°C (88% RH)
QNH1019 hPa
Density Alt1,985 ft
Elevation860 ft
Report Wrong Elevation
Raw Report
METAR KFFC 212353Z AUTO 12003KT 10SM FEW021 BKN100 22/20 A3010 RMK
AO2 WSHFT 2301 RAB2255E23 SLP187 P0001 60001 T02220200 10283
20222 53004=

Extra information for KFFC:More info

Metar Taf Metar & Taf Last 4 Metars F.Rules Stats Wind Profile Meteogram Temp Stats Airport Information Weather charts Add Link Nearby VenuesMetar ALERT Operation Metar Decoded Social comments

AIRNAV info for KFFC